KILE/ILE METAR and TAF weather

Enter ICAO airport designator
Station Type Date Time Source
KILE METAR 2019/04/24 15:56 UTC NOAA

KILE 241556Z AUTO 01009KT 5SM BR FEW031 SCT080 16/15 A2991 RMK AO2 TSE12 PRESFR SLP140 P0004 T01610150


Station Type Date Time Source
KILE Decoded METAR 2019/04/24 15:56 UTC NOAA

Killeen, Skylark Field Airport, TX, United States (KILE) 31-05N 097-41W
Apr 24, 2019 - 11:56 AM EDT / 2019.04.24 1556 UTC
Wind: from the N (010 degrees) at 10 MPH (9 KT):0
Visibility: 5 mile(s):0
Sky conditions: partly cloudy
Weather: mist
Precipitation last hour: 0.04 inches
Temperature: 61.0 F (16.1 C)
Dew Point: 59.0 F (15.0 C)
Relative Humidity: 93%
Pressure (altimeter): 29.91 in. Hg (1012 hPa)
Pressure tendency: falling rapidly
ob: KILE 241556Z AUTO 01009KT 5SM BR FEW031 SCT080 16/15 A2991 RMK AO2 TSE12 PRESFR SLP140 P0004 T01610150
cycle: 16

Station Type Date Time Source
KILE TAF UTC NOAA

Error!

Example: see airport list